sensor_id;sensor_type;location;lat;lon;timestamp;pressure;altitude;pressure_sealevel;temperature;humidity
20077;BME280;12348;42.710;23.378;2023-05-02T00:01:17;95451.09;;;10.52;100.00
20077;BME280;12348;42.710;23.378;2023-05-02T00:03:43;95452.97;;;10.52;100.00
20077;BME280;12348;42.710;23.378;2023-05-02T00:06:12;95459.41;;;10.61;100.00
20077;BME280;12348;42.710;23.378;2023-05-02T00:08:39;95463.38;;;10.63;100.00
20077;BME280;12348;42.710;23.378;2023-05-02T00:11:06;95462.53;;;10.73;100.00
20077;BME280;12348;42.710;23.378;2023-05-02T00:13:32;95458.22;;;10.72;100.00
20077;BME280;12348;42.710;23.378;2023-05-02T00:16:00;95455.91;;;10.55;100.00
20077;BME280;12348;42.710;23.378;2023-05-02T00:18:27;95458.22;;;10.72;100.00
20077;BME280;12348;42.710;23.378;2023-05-02T00:20:54;95468.81;;;10.58;100.00
20077;BME280;12348;42.710;23.378;2023-05-02T00:23:22;95469.50;;;10.74;100.00
20077;BME280;12348;42.710;23.378;2023-05-02T00:25:49;95465.53;;;10.66;100.00
20077;BME280;12348;42.710;23.378;2023-05-02T00:28:16;95466.38;;;10.62;100.00
20077;BME280;12348;42.710;23.378;2023-05-02T00:30:43;95464.16;;;10.69;100.00
20077;BME280;12348;42.710;23.378;2023-05-02T00:33:10;95461.41;;;10.79;100.00
20077;BME280;12348;42.710;23.378;2023-05-02T00:35:39;95461.19;;;10.71;100.00
20077;BME280;12348;42.710;23.378;2023-05-02T00:38:06;95475.44;;;10.71;100.00
20077;BME280;12348;42.710;23.378;2023-05-02T00:40:43;95477.09;;;10.72;100.00
20077;BME280;12348;42.710;23.378;2023-05-02T00:43:11;95471.41;;;10.74;100.00
20077;BME280;12348;42.710;23.378;2023-05-02T00:45:38;95473.91;;;10.60;100.00
20077;BME280;12348;42.710;23.378;2023-05-02T00:48:06;95480.94;;;10.56;100.00
20077;BME280;12348;42.710;23.378;2023-05-02T00:50:34;95484.06;;;10.73;100.00
20077;BME280;12348;42.710;23.378;2023-05-02T00:53:02;95483.53;;;10.71;100.00
20077;BME280;12348;42.710;23.378;2023-05-02T00:55:30;95491.72;;;10.61;100.00
20077;BME280;12348;42.710;23.378;2023-05-02T00:58:00;95490.22;;;10.39;100.00
20077;BME280;12348;42.710;23.378;2023-05-02T01:00:40;95484.09;;;10.29;100.00
20077;BME280;12348;42.710;23.378;2023-05-02T01:03:19;95485.50;;;10.60;100.00
20077;BME280;12348;42.710;23.378;2023-05-02T01:05:58;95488.84;;;10.47;100.00
20077;BME280;12348;42.710;23.378;2023-05-02T01:08:37;95483.19;;;10.43;100.00
20077;BME280;12348;42.710;23.378;2023-05-02T01:11:13;95487.78;;;10.43;100.00
20077;BME280;12348;42.710;23.378;2023-05-02T01:13:43;95485.28;;;10.57;100.00
20077;BME280;12348;42.710;23.378;2023-05-02T01:16:13;95478.81;;;10.53;100.00
20077;BME280;12348;42.710;23.378;2023-05-02T01:18:43;95486.94;;;10.48;100.00
20077;BME280;12348;42.710;23.378;2023-05-02T01:21:12;95492.00;;;10.54;100.00
20077;BME280;12348;42.710;23.378;2023-05-02T01:23:45;95491.22;;;10.54;100.00
20077;BME280;12348;42.710;23.378;2023-05-02T01:26:23;95482.00;;;10.60;100.00
20077;BME280;12348;42.710;23.378;2023-05-02T01:28:58;95478.81;;;10.53;100.00
20077;BME280;12348;42.710;23.378;2023-05-02T01:31:26;95481.56;;;10.48;100.00
20077;BME280;12348;42.710;23.378;2023-05-02T01:33:55;95484.03;;;10.39;100.00
20077;BME280;12348;42.710;23.378;2023-05-02T01:36:26;95489.13;;;10.46;100.00
20077;BME280;12348;42.710;23.378;2023-05-02T01:38:55;95484.75;;;10.55;100.00
20077;BME280;12348;42.710;23.378;2023-05-02T01:41:24;95481.19;;;10.59;100.00
20077;BME280;12348;42.710;23.378;2023-05-02T01:43:53;95486.72;;;10.39;100.00
20077;BME280;12348;42.710;23.378;2023-05-02T01:46:24;95491.56;;;10.42;100.00
20077;BME280;12348;42.710;23.378;2023-05-02T01:48:53;95497.25;;;10.30;100.00
20077;BME280;12348;42.710;23.378;2023-05-02T01:51:27;95501.28;;;10.33;100.00
20077;BME280;12348;42.710;23.378;2023-05-02T01:53:57;95497.38;;;10.10;100.00
20077;BME280;12348;42.710;23.378;2023-05-02T01:56:27;95492.81;;;10.05;100.00
20077;BME280;12348;42.710;23.378;2023-05-02T01:58:56;95492.44;;;10.32;100.00
20077;BME280;12348;42.710;23.378;2023-05-02T02:01:26;95489.53;;;10.63;100.00
20077;BME280;12348;42.710;23.378;2023-05-02T02:03:55;95480.50;;;10.43;100.00
20077;BME280;12348;42.710;23.378;2023-05-02T02:06:23;95489.50;;;10.24;100.00
20077;BME280;12348;42.710;23.378;2023-05-02T02:08:51;95490.38;;;10.09;100.00
20077;BME280;12348;42.710;23.378;2023-05-02T02:11:23;95480.56;;;10.33;100.00
20077;BME280;12348;42.710;23.378;2023-05-02T02:13:57;95475.53;;;10.16;100.00
20077;BME280;12348;42.710;23.378;2023-05-02T02:16:33;95472.34;;;10.09;100.00
20077;BME280;12348;42.710;23.378;2023-05-02T02:19:05;95482.06;;;10.05;100.00
20077;BME280;12348;42.710;23.378;2023-05-02T02:21:33;95478.53;;;10.10;100.00
20077;BME280;12348;42.710;23.378;2023-05-02T02:24:04;95476.28;;;10.32;100.00
20077;BME280;12348;42.710;23.378;2023-05-02T02:26:32;95484.84;;;10.34;100.00
20077;BME280;12348;42.710;23.378;2023-05-02T02:29:00;95495.19;;;10.12;100.00
20077;BME280;12348;42.710;23.378;2023-05-02T02:31:31;95489.31;;;10.05;100.00
20077;BME280;12348;42.710;23.378;2023-05-02T02:33:58;95492.56;;;10.02;100.00
20077;BME280;12348;42.710;23.378;2023-05-02T02:36:29;95483.38;;;10.08;100.00
20077;BME280;12348;42.710;23.378;2023-05-02T02:39:07;95491.72;;;10.06;100.00
20077;BME280;12348;42.710;23.378;2023-05-02T02:41:42;95478.06;;;9.98;100.00
20077;BME280;12348;42.710;23.378;2023-05-02T02:44:24;95483.47;;;9.87;100.00
20077;BME280;12348;42.710;23.378;2023-05-02T02:47:09;95489.00;;;10.11;100.00
20077;BME280;12348;42.710;23.378;2023-05-02T02:49:45;95490.38;;;10.09;100.00
20077;BME280;12348;42.710;23.378;2023-05-02T02:52:20;95485.09;;;9.88;100.00
20077;BME280;12348;42.710;23.378;2023-05-02T02:54:52;95486.16;;;9.87;100.00
20077;BME280;12348;42.710;23.378;2023-05-02T02:57:27;95490.63;;;10.12;100.00
20077;BME280;12348;42.710;23.378;2023-05-02T03:00:01;95491.09;;;10.25;100.00
20077;BME280;12348;42.710;23.378;2023-05-02T03:02:33;95495.38;;;10.36;100.00
20077;BME280;12348;42.710;23.378;2023-05-02T03:05:01;95512.28;;;10.41;100.00
20077;BME280;12348;42.710;23.378;2023-05-02T03:07:31;95499.06;;;10.84;100.00
20077;BME280;12348;42.710;23.378;2023-05-02T03:10:01;95497.59;;;10.68;100.00
20077;BME280;12348;42.710;23.378;2023-05-02T03:12:28;95505.06;;;10.71;100.00
20077;BME280;12348;42.710;23.378;2023-05-02T03:14:59;95518.28;;;10.73;100.00
20077;BME280;12348;42.710;23.378;2023-05-02T03:17:28;95515.72;;;10.86;100.00
20077;BME280;12348;42.710;23.378;2023-05-02T03:19:57;95521.38;;;11.24;100.00
20077;BME280;12348;42.710;23.378;2023-05-02T03:22:24;95519.56;;;11.14;100.00
20077;BME280;12348;42.710;23.378;2023-05-02T03:24:50;95521.66;;;10.88;100.00
20077;BME280;12348;42.710;23.378;2023-05-02T03:27:17;95522.56;;;10.74;100.00
20077;BME280;12348;42.710;23.378;2023-05-02T03:29:44;95523.09;;;10.76;100.00
20077;BME280;12348;42.710;23.378;2023-05-02T03:32:12;95532.19;;;10.85;100.00
20077;BME280;12348;42.710;23.378;2023-05-02T03:34:39;95534.94;;;11.09;100.00
20077;BME280;12348;42.710;23.378;2023-05-02T03:37:07;95535.03;;;11.33;100.00
20077;BME280;12348;42.710;23.378;2023-05-02T03:39:34;95544.06;;;11.71;100.00
20077;BME280;12348;42.710;23.378;2023-05-02T03:42:01;95529.75;;;12.00;100.00
20077;BME280;12348;42.710;23.378;2023-05-02T03:44:28;95516.09;;;12.53;100.00
20077;BME280;12348;42.710;23.378;2023-05-02T03:46:55;95530.94;;;12.55;100.00
20077;BME280;12348;42.710;23.378;2023-05-02T03:49:21;95527.84;;;13.00;100.00
20077;BME280;12348;42.710;23.378;2023-05-02T03:51:48;95534.41;;;13.59;100.00
20077;BME280;12348;42.710;23.378;2023-05-02T03:54:17;95534.84;;;13.80;100.00
20077;BME280;12348;42.710;23.378;2023-05-02T03:56:43;95526.84;;;14.02;100.00
20077;BME280;12348;42.710;23.378;2023-05-02T03:59:11;95533.53;;;14.32;100.00
20077;BME280;12348;42.710;23.378;2023-05-02T04:01:38;95531.91;;;14.59;100.00
20077;BME280;12348;42.710;23.378;2023-05-02T04:04:05;95529.38;;;15.44;96.88
20077;BME280;12348;42.710;23.378;2023-05-02T04:06:33;95524.38;;;15.37;94.34
20077;BME280;12348;42.710;23.378;2023-05-02T04:08:59;95521.47;;;15.34;95.04
20077;BME280;12348;42.710;23.378;2023-05-02T04:11:28;95528.16;;;15.27;94.64
20077;BME280;12348;42.710;23.378;2023-05-02T04:13:55;95524.25;;;15.42;94.22
20077;BME280;12348;42.710;23.378;2023-05-02T04:16:22;95530.03;;;16.12;88.74
20077;BME280;12348;42.710;23.378;2023-05-02T04:18:48;95531.75;;;15.68;88.28
20077;BME280;12348;42.710;23.378;2023-05-02T04:21:15;95530.78;;;16.52;86.26
20077;BME280;12348;42.710;23.378;2023-05-02T04:23:42;95523.28;;;17.27;81.08
20077;BME280;12348;42.710;23.378;2023-05-02T04:26:09;95526.09;;;17.65;78.80
20077;BME280;12348;42.710;23.378;2023-05-02T04:28:38;95528.41;;;16.77;81.80
20077;BME280;12348;42.710;23.378;2023-05-02T04:31:05;95531.09;;;17.46;80.26
20077;BME280;12348;42.710;23.378;2023-05-02T04:33:31;95535.78;;;17.37;79.50
20077;BME280;12348;42.710;23.378;2023-05-02T04:35:58;95525.63;;;18.10;76.63
20077;BME280;12348;42.710;23.378;2023-05-02T04:38:25;95531.88;;;18.20;75.15
20077;BME280;12348;42.710;23.378;2023-05-02T04:40:52;95539.34;;;18.31;74.29
20077;BME280;12348;42.710;23.378;2023-05-02T04:43:19;95538.25;;;18.53;74.05
20077;BME280;12348;42.710;23.378;2023-05-02T04:45:48;95541.94;;;18.28;71.97
20077;BME280;12348;42.710;23.378;2023-05-02T04:48:14;95537.78;;;18.51;72.95
20077;BME280;12348;42.710;23.378;2023-05-02T04:50:44;95541.28;;;17.92;72.25
20077;BME280;12348;42.710;23.378;2023-05-02T04:53:10;95545.25;;;18.04;72.34
20077;BME280;12348;42.710;23.378;2023-05-02T04:55:38;95550.09;;;18.28;71.46
20077;BME280;12348;42.710;23.378;2023-05-02T04:58:04;95548.69;;;18.51;70.92
20077;BME280;12348;42.710;23.378;2023-05-02T05:00:31;95550.03;;;18.75;69.00
20077;BME280;12348;42.710;23.378;2023-05-02T05:02:59;95545.09;;;18.38;69.10
20077;BME280;12348;42.710;23.378;2023-05-02T05:05:26;95555.19;;;18.38;68.32
20077;BME280;12348;42.710;23.378;2023-05-02T05:07:53;95547.44;;;18.10;67.95
20077;BME280;12348;42.710;23.378;2023-05-02T05:10:20;95534.75;;;17.67;71.87
20077;BME280;12348;42.710;23.378;2023-05-02T05:12:47;95539.91;;;17.43;73.07
20077;BME280;12348;42.710;23.378;2023-05-02T05:15:15;95542.72;;;18.28;68.99
20077;BME280;12348;42.710;23.378;2023-05-02T05:17:42;95542.53;;;17.22;72.39
20077;BME280;12348;42.710;23.378;2023-05-02T05:20:10;95539.41;;;17.67;70.72
20077;BME280;12348;42.710;23.378;2023-05-02T05:22:38;95565.34;;;18.58;67.15
20077;BME280;12348;42.710;23.378;2023-05-02T05:25:06;95545.16;;;18.51;67.59
20077;BME280;12348;42.710;23.378;2023-05-02T05:27:33;95551.09;;;18.23;68.98
20077;BME280;12348;42.710;23.378;2023-05-02T05:30:00;95546.81;;;18.43;68.00
20077;BME280;12348;42.710;23.378;2023-05-02T05:32:27;95546.66;;;18.39;68.20
20077;BME280;12348;42.710;23.378;2023-05-02T05:34:54;95545.72;;;17.15;72.59
20077;BME280;12348;42.710;23.378;2023-05-02T05:37:22;95562.03;;;15.84;76.69
20077;BME280;12348;42.710;23.378;2023-05-02T05:39:49;95556.91;;;17.49;71.14
20077;BME280;12348;42.710;23.378;2023-05-02T05:42:16;95549.31;;;18.18;66.67
20077;BME280;12348;42.710;23.378;2023-05-02T05:44:43;95557.50;;;18.86;63.06
20077;BME280;12348;42.710;23.378;2023-05-02T05:47:10;95572.91;;;18.14;65.07
20077;BME280;12348;42.710;23.378;2023-05-02T05:49:37;95577.16;;;18.33;65.74
20077;BME280;12348;42.710;23.378;2023-05-02T05:52:04;95570.19;;;18.14;65.75
20077;BME280;12348;42.710;23.378;2023-05-02T05:54:32;95573.84;;;17.80;66.83
20077;BME280;12348;42.710;23.378;2023-05-02T05:56:59;95565.41;;;19.00;60.24
20077;BME280;12348;42.710;23.378;2023-05-02T05:59:27;95580.03;;;18.45;60.16
20077;BME280;12348;42.710;23.378;2023-05-02T06:01:54;95566.47;;;18.28;61.21
20077;BME280;12348;42.710;23.378;2023-05-02T06:04:21;95565.63;;;17.98;62.93
20077;BME280;12348;42.710;23.378;2023-05-02T06:06:48;95589.72;;;18.63;58.90
20077;BME280;12348;42.710;23.378;2023-05-02T06:09:17;95576.41;;;18.92;56.96
20077;BME280;12348;42.710;23.378;2023-05-02T06:11:46;95579.47;;;19.11;57.62
20077;BME280;12348;42.710;23.378;2023-05-02T06:14:13;95583.19;;;19.06;57.16
20077;BME280;12348;42.710;23.378;2023-05-02T06:16:40;95577.19;;;19.34;56.34
20077;BME280;12348;42.710;23.378;2023-05-02T06:19:07;95577.81;;;20.18;52.43
20077;BME280;12348;42.710;23.378;2023-05-02T06:21:35;95583.50;;;19.68;53.09
20077;BME280;12348;42.710;23.378;2023-05-02T06:24:02;95565.66;;;19.82;53.18
20077;BME280;12348;42.710;23.378;2023-05-02T06:26:29;95568.72;;;20.39;50.31
20077;BME280;12348;42.710;23.378;2023-05-02T06:28:58;95564.31;;;19.55;51.60
20077;BME280;12348;42.710;23.378;2023-05-02T06:31:25;95555.22;;;19.97;50.97
20077;BME280;12348;42.710;23.378;2023-05-02T06:33:52;95568.69;;;18.94;53.03
20077;BME280;12348;42.710;23.378;2023-05-02T06:36:19;95560.25;;;18.78;53.59
20077;BME280;12348;42.710;23.378;2023-05-02T06:38:46;95583.94;;;18.27;54.67
20077;BME280;12348;42.710;23.378;2023-05-02T06:41:13;95564.34;;;20.01;50.29
20077;BME280;12348;42.710;23.378;2023-05-02T06:43:40;95590.38;;;19.86;49.56
20077;BME280;12348;42.710;23.378;2023-05-02T06:46:08;95584.38;;;20.75;48.35
20077;BME280;12348;42.710;23.378;2023-05-02T06:48:35;95556.66;;;19.49;50.17
20077;BME280;12348;42.710;23.378;2023-05-02T06:51:02;95574.66;;;19.29;51.83
20077;BME280;12348;42.710;23.378;2023-05-02T06:53:29;95564.88;;;19.28;51.78
20077;BME280;12348;42.710;23.378;2023-05-02T06:55:55;95564.28;;;19.43;51.68
20077;BME280;12348;42.710;23.378;2023-05-02T06:58:23;95549.47;;;19.44;51.57
20077;BME280;12348;42.710;23.378;2023-05-02T07:00:50;95586.31;;;19.38;50.49
20077;BME280;12348;42.710;23.378;2023-05-02T07:03:18;95572.78;;;20.08;47.98
20077;BME280;12348;42.710;23.378;2023-05-02T07:05:45;95565.09;;;20.47;47.41
20077;BME280;12348;42.710;23.378;2023-05-02T07:08:13;95549.22;;;20.03;48.07
20077;BME280;12348;42.710;23.378;2023-05-02T07:10:40;95541.94;;;19.41;50.04
20077;BME280;12348;42.710;23.378;2023-05-02T07:13:07;95572.22;;;20.02;48.37
20077;BME280;12348;42.710;23.378;2023-05-02T07:15:35;95557.47;;;20.52;46.46
20077;BME280;12348;42.710;23.378;2023-05-02T07:18:02;95551.78;;;21.50;46.04
20077;BME280;12348;42.710;23.378;2023-05-02T07:20:30;95550.81;;;21.87;44.22
20077;BME280;12348;42.710;23.378;2023-05-02T07:22:57;95550.25;;;21.65;43.47
20077;BME280;12348;42.710;23.378;2023-05-02T07:25:24;95573.88;;;21.70;43.41
20077;BME280;12348;42.710;23.378;2023-05-02T07:27:51;95563.63;;;21.67;44.13
20077;BME280;12348;42.710;23.378;2023-05-02T07:30:18;95561.84;;;21.06;45.20
20077;BME280;12348;42.710;23.378;2023-05-02T07:32:45;95549.34;;;21.21;44.31
20077;BME280;12348;42.710;23.378;2023-05-02T07:35:11;95563.16;;;20.47;44.84
20077;BME280;12348;42.710;23.378;2023-05-02T07:37:41;95573.84;;;20.89;44.13
20077;BME280;12348;42.710;23.378;2023-05-02T07:40:09;95556.78;;;21.61;43.32
20077;BME280;12348;42.710;23.378;2023-05-02T07:42:35;95559.44;;;21.04;44.15
20077;BME280;12348;42.710;23.378;2023-05-02T07:45:03;95562.81;;;21.38;44.37
20077;BME280;12348;42.710;23.378;2023-05-02T07:47:30;95587.72;;;21.33;43.62
20077;BME280;12348;42.710;23.378;2023-05-02T07:49:56;95568.41;;;20.65;45.34
20077;BME280;12348;42.710;23.378;2023-05-02T07:52:28;95557.88;;;20.42;46.26
20077;BME280;12348;42.710;23.378;2023-05-02T07:54:58;95552.03;;;18.86;49.58
20077;BME280;12348;42.710;23.378;2023-05-02T07:57:25;95567.28;;;19.83;47.12
20077;BME280;12348;42.710;23.378;2023-05-02T07:59:52;95578.00;;;20.01;46.46
20077;BME280;12348;42.710;23.378;2023-05-02T08:02:21;95572.94;;;20.48;46.51
20077;BME280;12348;42.710;23.378;2023-05-02T08:04:50;95565.78;;;20.80;45.09
20077;BME280;12348;42.710;23.378;2023-05-02T08:07:17;95555.34;;;21.11;43.61
20077;BME280;12348;42.710;23.378;2023-05-02T08:09:43;95567.09;;;19.13;47.39
20077;BME280;12348;42.710;23.378;2023-05-02T08:12:12;95555.97;;;20.67;44.90
20077;BME280;12348;42.710;23.378;2023-05-02T08:14:39;95569.41;;;20.97;43.86
20077;BME280;12348;42.710;23.378;2023-05-02T08:17:05;95560.38;;;20.10;45.59
20077;BME280;12348;42.710;23.378;2023-05-02T08:19:32;95550.94;;;21.34;43.49
20077;BME280;12348;42.710;23.378;2023-05-02T08:21:59;95553.38;;;21.95;41.93
20077;BME280;12348;42.710;23.378;2023-05-02T08:24:26;95549.91;;;21.67;43.12
20077;BME280;12348;42.710;23.378;2023-05-02T08:26:52;95553.31;;;21.48;43.60
20077;BME280;12348;42.710;23.378;2023-05-02T08:29:20;95555.31;;;21.23;44.20
20077;BME280;12348;42.710;23.378;2023-05-02T08:31:47;95590.25;;;21.14;43.52
20077;BME280;12348;42.710;23.378;2023-05-02T08:34:14;95547.06;;;22.07;41.69
20077;BME280;12348;42.710;23.378;2023-05-02T08:36:41;95533.16;;;22.00;41.46
20077;BME280;12348;42.710;23.378;2023-05-02T08:39:07;95544.53;;;21.42;42.09
20077;BME280;12348;42.710;23.378;2023-05-02T08:41:35;95569.03;;;21.11;42.66
20077;BME280;12348;42.710;23.378;2023-05-02T08:44:03;95574.00;;;22.49;41.02
20077;BME280;12348;42.710;23.378;2023-05-02T08:46:34;95540.56;;;21.84;42.00
20077;BME280;12348;42.710;23.378;2023-05-02T08:49:02;95571.22;;;21.45;42.56
20077;BME280;12348;42.710;23.378;2023-05-02T08:51:29;95543.00;;;22.48;41.02
20077;BME280;12348;42.710;23.378;2023-05-02T08:53:58;95581.41;;;21.33;42.05
20077;BME280;12348;42.710;23.378;2023-05-02T08:56:27;95556.13;;;21.79;41.14
20077;BME280;12348;42.710;23.378;2023-05-02T08:58:54;95553.72;;;21.10;42.04
20077;BME280;12348;42.710;23.378;2023-05-02T09:01:23;95553.56;;;21.87;41.55
20077;BME280;12348;42.710;23.378;2023-05-02T09:03:52;95545.22;;;20.87;42.17
20077;BME280;12348;42.710;23.378;2023-05-02T09:06:21;95545.03;;;22.20;40.56
20077;BME280;12348;42.710;23.378;2023-05-02T09:08:49;95534.22;;;22.59;41.33
20077;BME280;12348;42.710;23.378;2023-05-02T09:11:17;95536.03;;;22.86;39.88
20077;BME280;12348;42.710;23.378;2023-05-02T09:13:46;95521.19;;;23.07;40.14
20077;BME280;12348;42.710;23.378;2023-05-02T09:16:15;95535.22;;;22.19;40.42
20077;BME280;12348;42.710;23.378;2023-05-02T09:18:43;95534.69;;;22.29;39.40
20077;BME280;12348;42.710;23.378;2023-05-02T09:21:13;95533.88;;;21.69;40.44
20077;BME280;12348;42.710;23.378;2023-05-02T09:23:42;95527.44;;;21.33;41.02
20077;BME280;12348;42.710;23.378;2023-05-02T09:26:19;95508.03;;;22.14;40.54
20077;BME280;12348;42.710;23.378;2023-05-02T09:28:47;95521.16;;;21.61;39.29
20077;BME280;12348;42.710;23.378;2023-05-02T09:31:18;95507.59;;;22.12;39.08
20077;BME280;12348;42.710;23.378;2023-05-02T09:33:46;95522.00;;;22.40;39.82
20077;BME280;12348;42.710;23.378;2023-05-02T09:36:15;95528.22;;;22.37;39.86
20077;BME280;12348;42.710;23.378;2023-05-02T09:38:45;95510.47;;;22.66;38.32
20077;BME280;12348;42.710;23.378;2023-05-02T09:41:12;95511.75;;;22.53;39.63
20077;BME280;12348;42.710;23.378;2023-05-02T09:43:40;95526.81;;;21.40;39.73
20077;BME280;12348;42.710;23.378;2023-05-02T09:46:07;95509.69;;;21.71;39.24
20077;BME280;12348;42.710;23.378;2023-05-02T09:48:50;95520.66;;;21.71;39.25
20077;BME280;12348;42.710;23.378;2023-05-02T09:51:19;95498.53;;;21.95;39.68
20077;BME280;12348;42.710;23.378;2023-05-02T09:53:47;95500.72;;;21.30;39.72
20077;BME280;12348;42.710;23.378;2023-05-02T09:56:14;95521.50;;;21.59;40.25
20077;BME280;12348;42.710;23.378;2023-05-02T09:58:41;95516.25;;;21.82;40.11
20077;BME280;12348;42.710;23.378;2023-05-02T10:04:01;95511.75;;;20.65;40.34
20077;BME280;12348;42.710;23.378;2023-05-02T10:06:31;95488.81;;;21.82;40.25
20077;BME280;12348;42.710;23.378;2023-05-02T10:08:58;95483.59;;;22.40;38.64
20077;BME280;12348;42.710;23.378;2023-05-02T10:11:25;95514.00;;;22.16;38.67
20077;BME280;12348;42.710;23.378;2023-05-02T10:13:52;95492.66;;;21.21;40.12
20077;BME280;12348;42.710;23.378;2023-05-02T10:16:26;95490.78;;;21.97;38.71
20077;BME280;12348;42.710;23.378;2023-05-02T10:18:59;95477.44;;;21.96;40.04
20077;BME280;12348;42.710;23.378;2023-05-02T10:21:29;95494.91;;;21.75;39.65
20077;BME280;12348;42.710;23.378;2023-05-02T10:24:00;95499.91;;;21.58;40.18
20077;BME280;12348;42.710;23.378;2023-05-02T10:26:28;95497.84;;;21.39;40.53
20077;BME280;12348;42.710;23.378;2023-05-02T10:28:56;95482.50;;;21.22;40.09
20077;BME280;12348;42.710;23.378;2023-05-02T10:31:23;95474.28;;;21.22;41.03
20077;BME280;12348;42.710;23.378;2023-05-02T10:33:50;95482.88;;;21.08;41.52
20077;BME280;12348;42.710;23.378;2023-05-02T10:36:20;95469.91;;;21.93;40.34
20077;BME280;12348;42.710;23.378;2023-05-02T10:38:47;95458.47;;;21.91;39.90
20077;BME280;12348;42.710;23.378;2023-05-02T10:41:19;95475.47;;;22.28;39.24
20077;BME280;12348;42.710;23.378;2023-05-02T10:43:48;95466.47;;;21.36;40.48
20077;BME280;12348;42.710;23.378;2023-05-02T10:46:31;95476.84;;;21.30;40.44
20077;BME280;12348;42.710;23.378;2023-05-02T10:49:03;95457.84;;;21.66;40.35
20077;BME280;12348;42.710;23.378;2023-05-02T10:51:31;95457.03;;;21.49;40.85
20077;BME280;12348;42.710;23.378;2023-05-02T10:54:17;95453.94;;;21.51;41.24
20077;BME280;12348;42.710;23.378;2023-05-02T10:57:02;95459.88;;;21.25;40.91
20077;BME280;12348;42.710;23.378;2023-05-02T10:59:32;95450.09;;;20.83;41.40
20077;BME280;12348;42.710;23.378;2023-05-02T11:01:59;95455.69;;;21.15;41.74
20077;BME280;12348;42.710;23.378;2023-05-02T11:04:57;95448.41;;;20.79;40.72
20077;BME280;12348;42.710;23.378;2023-05-02T11:07:24;95433.00;;;21.15;40.41
20077;BME280;12348;42.710;23.378;2023-05-02T11:09:51;95436.34;;;21.36;41.72
20077;BME280;12348;42.710;23.378;2023-05-02T11:15:55;95440.00;;;21.72;40.61
20077;BME280;12348;42.710;23.378;2023-05-02T11:18:22;95443.19;;;21.74;41.07
20077;BME280;12348;42.710;23.378;2023-05-02T11:20:49;95447.38;;;21.40;42.21
20077;BME280;12348;42.710;23.378;2023-05-02T11:23:23;95435.50;;;20.92;41.19
20077;BME280;12348;42.710;23.378;2023-05-02T11:25:55;95432.31;;;21.18;41.48
20077;BME280;12348;42.710;23.378;2023-05-02T11:28:41;95433.22;;;21.10;42.39
20077;BME280;12348;42.710;23.378;2023-05-02T11:34:38;95428.66;;;21.14;42.98
20077;BME280;12348;42.710;23.378;2023-05-02T11:37:10;95420.25;;;21.06;43.16
20077;BME280;12348;42.710;23.378;2023-05-02T11:39:37;95432.31;;;21.18;42.68
20077;BME280;12348;42.710;23.378;2023-05-02T11:42:04;95429.72;;;20.69;42.33
20077;BME280;12348;42.710;23.378;2023-05-02T11:44:31;95420.59;;;20.24;43.59
20077;BME280;12348;42.710;23.378;2023-05-02T11:46:59;95414.41;;;20.52;43.39
20077;BME280;12348;42.710;23.378;2023-05-02T11:49:27;95426.03;;;20.89;43.75
20077;BME280;12348;42.710;23.378;2023-05-02T11:51:54;95404.47;;;21.31;43.43
20077;BME280;12348;42.710;23.378;2023-05-02T11:54:21;95420.50;;;21.01;42.64
20077;BME280;12348;42.710;23.378;2023-05-02T11:56:48;95407.47;;;21.26;43.03
20077;BME280;12348;42.710;23.378;2023-05-02T11:59:15;95406.19;;;21.08;41.46
20077;BME280;12348;42.710;23.378;2023-05-02T12:01:46;95411.88;;;20.59;43.20
20077;BME280;12348;42.710;23.378;2023-05-02T12:04:15;95397.00;;;21.00;43.05
20077;BME280;12348;42.710;23.378;2023-05-02T12:06:55;95404.47;;;20.88;42.67
20077;BME280;12348;42.710;23.378;2023-05-02T12:09:22;95399.75;;;21.00;43.59
20077;BME280;12348;42.710;23.378;2023-05-02T12:11:51;95408.50;;;20.78;43.29
20077;BME280;12348;42.710;23.378;2023-05-02T12:14:25;95382.78;;;20.67;43.63
20077;BME280;12348;42.710;23.378;2023-05-02T12:16:52;95398.09;;;20.31;42.05
20077;BME280;12348;42.710;23.378;2023-05-02T12:19:21;95432.06;;;20.54;42.82
20077;BME280;12348;42.710;23.378;2023-05-02T12:21:48;95397.56;;;20.25;42.14
20077;BME280;12348;42.710;23.378;2023-05-02T12:24:15;95410.78;;;20.11;42.14
20077;BME280;12348;42.710;23.378;2023-05-02T12:26:42;95388.00;;;20.31;41.90
20077;BME280;12348;42.710;23.378;2023-05-02T12:29:09;95393.06;;;20.45;42.23
20077;BME280;12348;42.710;23.378;2023-05-02T12:31:36;95378.25;;;20.58;41.03
20077;BME280;12348;42.710;23.378;2023-05-02T12:34:04;95375.06;;;20.44;41.54
20077;BME280;12348;42.710;23.378;2023-05-02T12:36:42;95369.75;;;20.23;41.20
20077;BME280;12348;42.710;23.378;2023-05-02T12:39:09;95388.50;;;19.84;41.52
20077;BME280;12348;42.710;23.378;2023-05-02T12:41:37;95356.72;;;19.92;42.03
20077;BME280;12348;42.710;23.378;2023-05-02T12:44:08;95350.88;;;19.94;41.61
20077;BME280;12348;42.710;23.378;2023-05-02T12:46:34;95343.31;;;20.27;40.69
20077;BME280;12348;42.710;23.378;2023-05-02T12:49:03;95353.69;;;20.22;41.27
20077;BME280;12348;42.710;23.378;2023-05-02T12:51:30;95337.56;;;20.45;41.09
20077;BME280;12348;42.710;23.378;2023-05-02T12:53:58;95348.66;;;20.24;40.59
20077;BME280;12348;42.710;23.378;2023-05-02T12:56:25;95361.50;;;19.71;40.73
20077;BME280;12348;42.710;23.378;2023-05-02T12:58:59;95357.38;;;19.89;40.61
20077;BME280;12348;42.710;23.378;2023-05-02T13:01:29;95345.44;;;19.81;40.66
20077;BME280;12348;42.710;23.378;2023-05-02T13:03:56;95361.25;;;20.00;41.10
20077;BME280;12348;42.710;23.378;2023-05-02T13:06:23;95356.72;;;19.92;41.44